Time;durP1;ratioP1;P1;durP2;ratioP2;P2;SDS_P1;SDS_P2;PMS_P1;PMS_P2;Temp;Humidity;BMP_temperature;BMP_pressure;BME280_temperature;BME280_humidity;BME280_pressure;Samples;Min_cycle;Max_cycle;Signal;HPM_P1;HPM_P2
2023/12/04 00:02:10;;;;;;;4.40;3.97;;;;;;;3.44;66.61;95350.13;5052551;28;20178;-67
2023/12/04 00:04:36;;;;;;;0.70;0.70;;;;;;;3.39;65.44;95340.19;5052168;28;20221;-67
2023/12/04 00:07:01;;;;;;;0.50;0.50;;;;;;;3.40;64.90;95342.63;5051821;28;20223;-67
2023/12/04 00:09:27;;;;;;;0.70;0.70;;;;;;;3.20;65.47;95346.41;5052218;28;20730;-67
2023/12/04 00:11:52;;;;;;;1.00;1.00;;;;;;;3.23;65.88;95343.50;5052425;28;20258;-67
2023/12/04 00:14:18;;;;;;;0.77;0.77;;;;;;;3.25;66.09;95349.38;5052224;28;20175;-67
2023/12/04 00:16:43;;;;;;;0.47;0.47;;;;;;;3.22;66.25;95348.84;5052193;28;20179;-68
2023/12/04 00:19:09;;;;;;;0.77;0.77;;;;;;;3.30;66.80;95351.50;5052190;28;20684;-67
2023/12/04 00:21:34;;;;;;;2.63;2.40;;;;;;;3.34;65.73;95358.88;5051976;28;20186;-67
2023/12/04 00:24:00;;;;;;;0.50;0.50;;;;;;;3.31;65.54;95359.16;5052071;28;20683;-67
2023/12/04 00:26:25;;;;;;;0.83;0.83;;;;;;;3.32;65.27;95367.78;5052014;28;20182;-67
2023/12/04 00:28:51;;;;;;;1.00;1.00;;;;;;;3.30;64.32;95373.13;5052178;28;20736;-67
2023/12/04 00:31:16;;;;;;;0.90;0.90;;;;;;;3.28;63.71;95376.88;5051940;28;20190;-66
2023/12/04 00:33:42;;;;;;;1.30;1.30;;;;;;;3.27;63.25;95383.06;5051762;28;20273;-67
2023/12/04 00:36:08;;;;;;;0.60;0.60;;;;;;;3.22;63.98;95380.88;5051683;28;20678;-67
2023/12/04 00:38:33;;;;;;;0.60;0.60;;;;;;;3.23;64.81;95382.53;5051771;28;20257;-67
2023/12/04 00:40:59;;;;;;;0.90;0.90;;;;;;;3.25;64.74;95385.81;5051713;28;20732;-67
2023/12/04 00:43:25;;;;;;;0.70;0.70;;;;;;;3.23;64.06;95389.50;5051721;28;20175;-67
2023/12/04 00:45:50;;;;;;;0.70;0.70;;;;;;;3.23;64.55;95394.72;5051722;28;20175;-67
2023/12/04 00:48:15;;;;;;;1.03;1.03;;;;;;;3.23;64.24;95392.94;5051441;28;20680;-67
2023/12/04 00:50:41;;;;;;;0.50;0.50;;;;;;;3.23;64.53;95392.13;5051589;28;20195;-67
2023/12/04 00:53:06;;;;;;;0.40;0.40;;;;;;;3.22;64.01;95393.91;5051463;28;20183;-67
2023/12/04 00:55:32;;;;;;;3.60;1.77;;;;;;;3.16;63.84;95391.09;5051383;28;20175;-67
2023/12/04 00:57:57;;;;;;;0.60;0.60;;;;;;;3.15;64.19;95390.28;5051408;28;20163;-67
2023/12/04 01:00:23;;;;;;;0.50;0.50;;;;;;;2.97;64.35;95395.50;5051388;28;20179;-67
2023/12/04 01:02:48;;;;;;;0.57;0.57;;;;;;;2.94;64.13;95392.41;5051609;28;20564;-67
2023/12/04 01:05:14;;;;;;;0.70;0.70;;;;;;;2.98;64.72;95404.94;5051136;28;20227;-67
2023/12/04 01:07:39;;;;;;;2.90;2.10;;;;;;;2.98;64.26;95409.31;5051281;28;20199;-68
2023/12/04 01:10:05;;;;;;;0.60;0.60;;;;;;;2.94;64.01;95403.59;5051024;28;20175;-67
2023/12/04 01:12:31;;;;;;;0.50;0.50;;;;;;;2.92;63.70;95409.94;5051193;28;20584;-68
2023/12/04 01:14:56;;;;;;;0.63;0.63;;;;;;;2.99;64.00;95409.19;5051177;28;20652;-67
2023/12/04 01:17:21;;;;;;;0.70;0.70;;;;;;;3.07;63.73;95410.22;5051013;28;20232;-68
2023/12/04 01:19:47;;;;;;;1.40;1.40;;;;;;;3.07;64.18;95408.44;5050104;28;20179;-68
2023/12/04 01:22:13;;;;;;;1.47;1.37;;;;;;;3.03;64.34;95405.28;5050987;28;20171;-68
2023/12/04 01:24:38;;;;;;;0.90;0.90;;;;;;;3.12;63.26;95415.75;5050779;28;20167;-68
2023/12/04 01:27:04;;;;;;;0.50;0.50;;;;;;;3.16;63.40;95414.50;5050728;28;20225;-68
2023/12/04 01:29:31;;;;;;;0.67;0.67;;;;;;;3.10;62.79;95413.34;5050883;28;20171;-68
2023/12/04 01:31:57;;;;;;;1.23;1.23;;;;;;;3.06;62.43;95413.78;5050759;28;20175;-68
2023/12/04 01:34:22;;;;;;;1.70;1.37;;;;;;;3.09;63.07;95421.28;5050794;28;20559;-68
2023/12/04 01:36:48;;;;;;;0.67;0.67;;;;;;;3.13;62.81;95417.41;5050666;28;20171;-68
2023/12/04 01:39:13;;;;;;;0.53;0.53;;;;;;;3.17;63.00;95414.34;5050672;28;20179;-68
2023/12/04 01:41:40;;;;;;;0.80;0.80;;;;;;;3.18;63.08;95410.78;5050778;28;20186;-68
2023/12/04 01:44:05;;;;;;;1.13;1.13;;;;;;;3.21;62.86;95415.66;5050568;28;20175;-68
2023/12/04 01:46:31;;;;;;;1.53;1.43;;;;;;;3.18;63.21;95418.59;5050515;28;20315;-67
2023/12/04 01:48:57;;;;;;;0.90;0.90;;;;;;;3.09;62.20;95400.47;5050235;28;20513;-67
2023/12/04 01:51:24;;;;;;;0.87;0.87;;;;;;;3.08;62.70;95417.03;5050371;28;20547;-67
2023/12/04 01:53:49;;;;;;;1.13;1.13;;;;;;;3.07;63.35;95410.22;5050452;28;20581;-67
2023/12/04 01:56:17;;;;;;;0.70;0.70;;;;;;;3.04;63.04;95413.91;5050211;28;20213;-67
2023/12/04 01:58:43;;;;;;;0.70;0.70;;;;;;;3.03;63.59;95414.88;5050328;28;20232;-67
2023/12/04 02:01:10;;;;;;;0.50;0.50;;;;;;;3.10;63.19;95413.34;5050145;28;20198;-67
2023/12/04 02:03:36;;;;;;;1.20;1.20;;;;;;;3.07;63.75;95418.81;5050106;28;20644;-66
2023/12/04 02:06:03;;;;;;;0.60;0.60;;;;;;;3.09;63.91;95431.69;5050051;28;20230;-66
2023/12/04 02:08:30;;;;;;;0.60;0.60;;;;;;;3.06;63.55;95417.19;5050037;28;20195;-67
2023/12/04 02:10:55;;;;;;;0.70;0.70;;;;;;;2.98;63.34;95423.16;5049852;28;20179;-67
2023/12/04 02:13:21;;;;;;;0.70;0.70;;;;;;;2.94;63.62;95424.41;5061901;28;20209;-67
2023/12/04 02:15:52;;;;;;;0.60;0.60;;;;;;;2.94;63.36;95423.63;5070294;28;20170;-66
2023/12/04 02:18:18;;;;;;;0.50;0.50;;;;;;;2.89;63.33;95431.03;5069854;28;20244;-67
2023/12/04 02:20:43;;;;;;;3.80;2.67;;;;;;;2.71;64.31;95406.81;5070007;28;20639;-67
2023/12/04 02:23:09;;;;;;;1.10;1.10;;;;;;;2.95;63.49;95438.22;5069928;28;20244;-68
2023/12/04 02:25:34;;;;;;;0.50;0.50;;;;;;;2.94;63.84;95437.41;5069820;28;20272;-68
2023/12/04 02:28:04;;;;;;;0.50;0.50;;;;;;;2.98;63.99;95446.56;5069787;28;20229;-67
2023/12/04 02:30:35;;;;;;;1.00;1.00;;;;;;;2.79;63.28;95425.91;5071539;28;20170;-68
2023/12/04 02:33:03;;;;;;;0.77;0.77;;;;;;;2.74;63.33;95442.91;5076437;28;20193;-67
2023/12/04 02:35:32;;;;;;;0.60;0.60;;;;;;;2.65;63.59;95444.63;5076574;28;20178;-67
2023/12/04 02:37:59;;;;;;;1.73;1.30;;;;;;;2.52;63.99;95444.97;5076595;28;20163;-67
2023/12/04 02:40:26;;;;;;;1.07;1.07;;;;;;;2.57;64.05;95439.34;5076474;28;20253;-67
2023/12/04 02:42:51;;;;;;;2.63;2.50;;;;;;;2.63;64.34;95436.16;5076461;28;20547;-67
2023/12/04 02:45:17;;;;;;;0.50;0.50;;;;;;;2.60;63.31;95442.44;5076334;28;20178;-67
2023/12/04 02:47:42;;;;;;;1.20;1.20;;;;;;;2.55;62.90;95452.47;5076468;28;20216;-68
2023/12/04 02:50:08;;;;;;;0.77;0.77;;;;;;;2.52;63.31;95455.38;5076418;28;20178;-67
2023/12/04 02:52:33;;;;;;;0.77;0.77;;;;;;;2.45;63.52;95448.31;5076345;28;20205;-67
2023/12/04 02:54:59;;;;;;;1.40;1.30;;;;;;;2.32;64.09;95446.06;5076557;28;20181;-67
2023/12/04 02:57:24;;;;;;;0.57;0.57;;;;;;;2.21;64.25;95454.06;5076512;28;20258;-67
2023/12/04 02:59:50;;;;;;;0.60;0.60;;;;;;;2.12;64.87;95452.31;5076301;28;20209;-67
2023/12/04 03:02:15;;;;;;;1.17;1.13;;;;;;;2.16;64.76;95448.50;5076136;28;20174;-68
2023/12/04 03:04:41;;;;;;;0.60;0.60;;;;;;;2.14;65.15;95453.00;5076327;28;20728;-68
2023/12/04 03:07:06;;;;;;;0.97;0.97;;;;;;;2.11;64.58;95454.09;5076349;28;20221;-68
2023/12/04 03:09:31;;;;;;;0.73;0.73;;;;;;;2.04;64.63;95453.03;5076364;28;20182;-67
2023/12/04 03:11:57;;;;;;;0.70;0.70;;;;;;;2.01;64.70;95455.09;5076455;28;20196;-67
2023/12/04 03:14:22;;;;;;;1.20;1.20;;;;;;;2.10;65.38;95454.25;5076209;28;20249;-66
2023/12/04 03:16:49;;;;;;;0.80;0.80;;;;;;;2.00;65.56;95456.06;5074041;28;20946;-66
2023/12/04 03:19:14;;;;;;;0.83;0.83;;;;;;;2.02;65.54;95459.34;5056310;28;20598;-67
2023/12/04 03:21:40;;;;;;;1.03;1.03;;;;;;;1.97;65.41;95456.38;5056117;28;20171;-67
2023/12/04 03:24:05;;;;;;;0.50;0.50;;;;;;;1.95;65.18;95461.69;5056235;28;20229;-67
2023/12/04 03:26:31;;;;;;;0.80;0.80;;;;;;;1.92;65.10;95464.56;5056045;28;20725;-68
2023/12/04 03:28:57;;;;;;;1.77;1.67;;;;;;;1.97;64.95;95464.97;5056286;28;20171;-67
2023/12/04 03:31:23;;;;;;;0.50;0.50;;;;;;;1.89;65.43;95455.31;5056099;28;20235;-67
2023/12/04 03:33:48;;;;;;;2.13;2.03;;;;;;;1.93;65.29;95461.00;5056046;28;20205;-67
2023/12/04 03:36:14;;;;;;;0.40;0.40;;;;;;;1.97;65.21;95466.75;5055907;28;20175;-67
2023/12/04 03:38:39;;;;;;;2.17;2.07;;;;;;;1.91;64.93;95457.72;5055825;28;20171;-67
2023/12/04 03:41:05;;;;;;;0.60;0.60;;;;;;;1.75;65.13;95450.56;5056073;28;20175;-67
2023/12/04 03:43:30;;;;;;;0.63;0.63;;;;;;;1.81;65.21;95470.78;5052231;28;20175;-67
2023/12/04 03:45:56;;;;;;;0.60;0.60;;;;;;;1.80;64.62;95476.91;5052796;28;20167;-67
2023/12/04 03:48:21;;;;;;;0.90;0.90;;;;;;;1.75;65.30;95471.31;5052940;28;20207;-67
2023/12/04 03:50:47;;;;;;;0.60;0.60;;;;;;;1.81;65.05;95485.53;5052753;28;20179;-67
2023/12/04 03:53:12;;;;;;;0.90;0.90;;;;;;;1.83;65.19;95488.78;5052338;28;20546;-67
2023/12/04 03:55:38;;;;;;;0.83;0.83;;;;;;;1.89;65.14;95483.84;5052249;28;20664;-67
2023/12/04 03:58:03;;;;;;;1.00;0.97;;;;;;;1.78;65.16;95467.63;5052432;28;20233;-67
2023/12/04 04:00:29;;;;;;;0.60;0.60;;;;;;;1.85;64.85;95481.66;5052439;28;20176;-68
2023/12/04 04:02:54;;;;;;;0.57;0.57;;;;;;;1.77;64.71;95484.97;5052331;28;20171;-68
2023/12/04 04:05:20;;;;;;;0.50;0.50;;;;;;;1.77;64.53;95484.97;5052143;28;20210;-68
2023/12/04 04:07:45;;;;;;;0.60;0.60;;;;;;;1.74;64.90;95484.44;5051874;28;20223;-68
2023/12/04 04:10:11;;;;;;;0.60;0.60;;;;;;;1.75;65.07;95488.66;5051210;28;20581;-68
2023/12/04 04:12:37;;;;;;;0.70;0.70;;;;;;;1.70;64.70;95486.50;5052290;28;20652;-67
2023/12/04 04:15:03;;;;;;;1.33;1.23;;;;;;;1.67;65.41;95491.97;5050487;28;20182;-67
2023/12/04 04:17:29;;;;;;;0.80;0.80;;;;;;;1.62;64.96;95499.38;5052130;28;20645;-67
2023/12/04 04:19:54;;;;;;;0.97;0.97;;;;;;;1.65;64.58;95499.06;5051959;28;20167;-67
2023/12/04 04:22:21;;;;;;;0.53;0.53;;;;;;;1.49;64.41;95489.28;5051877;28;20183;-67
2023/12/04 04:24:47;;;;;;;1.37;1.27;;;;;;;1.53;65.24;95502.78;5051801;28;20586;-67
2023/12/04 04:27:13;;;;;;;0.60;0.60;;;;;;;1.42;65.18;95503.75;5051704;28;20290;-67
2023/12/04 04:29:38;;;;;;;0.70;0.70;;;;;;;1.38;64.95;95510.19;5052272;28;21020;-68
2023/12/04 04:32:04;;;;;;;1.70;1.37;;;;;;;1.34;65.10;95506.22;5051613;28;20171;-68
2023/12/04 04:34:30;;;;;;;0.60;0.60;;;;;;;1.21;64.99;95484.16;5051924;28;20707;-67
2023/12/04 04:36:55;;;;;;;0.60;0.60;;;;;;;1.43;65.23;95512.38;5050446;28;20182;-67
2023/12/04 04:39:21;;;;;;;0.90;0.90;;;;;;;1.49;65.01;95511.78;5051799;28;20183;-67
2023/12/04 04:41:46;;;;;;;0.50;0.50;;;;;;;1.52;64.49;95508.94;5053909;28;20166;-68
2023/12/04 04:44:11;;;;;;;1.33;1.23;;;;;;;1.43;64.91;95513.19;5071174;28;20646;-68
2023/12/04 04:46:37;;;;;;;3.10;2.90;;;;;;;1.46;64.74;95522.47;5071227;28;20667;-68
2023/12/04 04:49:06;;;;;;;0.70;0.70;;;;;;;1.47;64.93;95518.94;5071255;28;20179;-67
2023/12/04 04:51:32;;;;;;;0.50;0.50;;;;;;;1.42;63.97;95521.91;5071090;28;20533;-67
2023/12/04 04:53:57;;;;;;;2.93;1.47;;;;;;;1.44;64.88;95521.78;5057699;28;20195;-69
2023/12/04 04:56:23;;;;;;;0.70;0.70;;;;;;;1.41;64.24;95524.63;5051288;28;20241;-67
2023/12/04 04:58:48;;;;;;;0.50;0.50;;;;;;;1.46;64.51;95530.25;5051388;28;20178;-67
2023/12/04 05:01:14;;;;;;;1.10;1.10;;;;;;;1.52;64.01;95530.50;5051034;28;20265;-67
2023/12/04 05:03:40;;;;;;;0.70;0.70;;;;;;;1.52;64.21;95532.28;5051282;28;20214;-67
2023/12/04 05:06:06;;;;;;;0.60;0.60;;;;;;;1.56;64.38;95525.84;5050869;28;20599;-67
2023/12/04 05:08:31;;;;;;;1.67;1.57;;;;;;;1.52;63.84;95530.50;5050888;28;20207;-68
2023/12/04 05:10:56;;;;;;;0.60;0.60;;;;;;;1.54;63.09;95529.56;5049890;28;20174;-66
2023/12/04 05:13:22;;;;;;;0.73;0.73;;;;;;;1.50;64.32;95526.41;5051200;28;20606;-68
2023/12/04 05:15:47;;;;;;;0.60;0.60;;;;;;;1.56;63.85;95530.25;5050279;28;20682;-66
2023/12/04 05:18:13;;;;;;;0.73;0.73;;;;;;;1.52;63.91;95535.69;5050504;28;20171;-67
2023/12/04 05:20:38;;;;;;;0.70;0.70;;;;;;;1.51;64.20;95536.66;5050330;28;20182;-67
2023/12/04 05:23:04;;;;;;;0.80;0.80;;;;;;;1.46;63.99;95538.03;5050466;28;20167;-67
2023/12/04 05:25:29;;;;;;;0.60;0.60;;;;;;;1.20;64.90;95530.00;5050408;28;20171;-68
2023/12/04 05:27:55;;;;;;;0.60;0.60;;;;;;;1.02;65.19;95535.03;5048777;28;20190;-68
2023/12/04 05:30:20;;;;;;;0.50;0.50;;;;;;;0.99;65.02;95535.31;5050244;28;20164;-67
2023/12/04 05:32:46;;;;;;;0.70;0.70;;;;;;;0.98;65.48;95520.69;5050249;28;20258;-70
2023/12/04 05:35:11;;;;;;;0.50;0.50;;;;;;;0.94;65.85;95519.34;5049873;28;20183;-68
2023/12/04 05:37:37;;;;;;;0.60;0.60;;;;;;;1.10;64.88;95542.13;5050533;28;20175;-67
2023/12/04 05:40:04;;;;;;;1.10;1.10;;;;;;;1.09;65.18;95549.09;5050555;28;20186;-67
2023/12/04 05:42:30;;;;;;;0.50;0.50;;;;;;;1.07;66.09;95550.16;5050127;28;20660;-67
2023/12/04 05:44:57;;;;;;;0.60;0.60;;;;;;;0.92;65.97;95513.47;5050334;28;20171;-67
2023/12/04 05:47:22;;;;;;;0.80;0.80;;;;;;;1.13;65.35;95537.47;5050173;28;20210;-67
2023/12/04 05:49:48;;;;;;;0.60;0.60;;;;;;;1.23;66.10;95547.03;5050533;28;20196;-67
2023/12/04 05:52:13;;;;;;;0.60;0.60;;;;;;;1.29;65.93;95549.09;5050232;28;20175;-67
2023/12/04 05:54:39;;;;;;;0.57;0.57;;;;;;;1.35;66.07;95557.16;5049055;28;20217;-69
2023/12/04 05:57:05;;;;;;;1.07;1.07;;;;;;;1.35;65.18;95556.31;5050107;28;20171;-68
2023/12/04 05:59:30;;;;;;;1.20;1.13;;;;;;;1.26;65.40;95555.38;5050134;28;20644;-68
2023/12/04 06:01:56;;;;;;;8.27;5.43;;;;;;;1.32;65.91;95551.41;5049813;28;20202;-68
2023/12/04 06:04:21;;;;;;;0.50;0.50;;;;;;;1.38;66.17;95556.06;5047200;28;20699;-68
2023/12/04 06:06:48;;;;;;;0.50;0.50;;;;;;;1.40;65.83;95559.31;5062435;28;20204;-68
2023/12/04 06:09:16;;;;;;;2.77;1.87;;;;;;;1.45;65.98;95559.75;5069527;28;20174;-68
2023/12/04 06:11:42;;;;;;;0.80;0.80;;;;;;;1.29;65.11;95564.66;5069884;28;20174;-68
2023/12/04 06:14:07;;;;;;;3.17;2.27;;;;;;;1.33;66.11;95568.59;5069216;28;20724;-68
2023/12/04 06:16:32;;;;;;;0.73;0.73;;;;;;;1.40;65.43;95565.31;5070355;28;20245;-68
2023/12/04 06:18:58;;;;;;;2.30;2.20;;;;;;;1.50;65.62;95566.13;5070675;28;20245;-68
2023/12/04 06:21:23;;;;;;;3.23;3.03;;;;;;;1.71;65.61;95572.94;5069458;28;20188;-68
2023/12/04 06:23:49;;;;;;;0.50;0.50;;;;;;;1.83;65.49;95564.03;5069539;28;20228;-69
2023/12/04 06:26:15;;;;;;;0.57;0.57;;;;;;;1.98;64.65;95570.44;5069484;28;20174;-69
2023/12/04 06:28:40;;;;;;;1.33;1.33;;;;;;;2.08;64.30;95578.19;5069086;28;20194;-68
2023/12/04 06:31:07;;;;;;;0.50;0.50;;;;;;;2.26;63.51;95589.47;5069560;28;20186;-69
2023/12/04 06:33:32;;;;;;;0.70;0.70;;;;;;;2.39;62.86;95576.19;5069239;28;20193;-67
2023/12/04 06:35:58;;;;;;;0.50;0.50;;;;;;;2.53;62.98;95579.13;5069386;28;20171;-69
2023/12/04 06:38:25;;;;;;;2.73;1.03;;;;;;;2.65;62.88;95585.78;5054238;28;20202;-68
2023/12/04 06:40:50;;;;;;;1.23;1.23;;;;;;;2.71;61.95;95584.38;5048893;28;20228;-68
2023/12/04 06:43:18;;;;;;;1.03;1.00;;;;;;;2.68;61.13;95581.25;5057930;28;20170;-69
2023/12/04 06:45:45;;;;;;;3.90;1.43;;;;;;;2.78;61.65;95597.59;5053758;28;20183;-69
2023/12/04 06:48:13;;;;;;;0.53;0.53;;;;;;;2.82;61.27;95602.38;5048336;28;20194;-69
2023/12/04 06:50:40;;;;;;;1.40;1.17;;;;;;;2.79;61.37;95605.25;5047036;28;20176;-68
2023/12/04 06:53:05;;;;;;;0.57;0.57;;;;;;;2.80;60.96;95599.09;5045395;28;20169;-67
2023/12/04 06:55:31;;;;;;;0.87;0.87;;;;;;;2.86;60.32;95606.31;5048985;28;20155;-67
2023/12/04 06:57:57;;;;;;;0.50;0.50;;;;;;;2.99;60.58;95608.59;5049023;28;20558;-67
2023/12/04 07:00:22;;;;;;;1.07;1.07;;;;;;;3.02;60.68;95609.13;5048796;28;20261;-67
2023/12/04 07:02:47;;;;;;;0.50;0.50;;;;;;;3.07;60.27;95606.06;5047673;28;20225;-67
2023/12/04 07:05:13;;;;;;;0.50;0.50;;;;;;;3.19;60.72;95606.69;5045202;28;20219;-69
2023/12/04 07:07:38;;;;;;;0.70;0.70;;;;;;;3.22;60.14;95621.97;5061204;28;20196;-69
2023/12/04 07:10:04;;;;;;;0.70;0.70;;;;;;;3.23;59.52;95613.22;5053887;28;20167;-69
2023/12/04 07:12:30;;;;;;;0.60;0.60;;;;;;;3.13;59.93;95622.88;5058556;28;20218;-69
2023/12/04 07:14:55;;;;;;;0.83;0.83;;;;;;;3.21;59.80;95617.75;5060181;28;20194;-69
2023/12/04 07:17:22;;;;;;;0.60;0.60;;;;;;;3.34;60.05;95613.84;5052103;28;20163;-69
2023/12/04 07:19:47;;;;;;;0.60;0.60;;;;;;;3.48;59.29;95622.91;5067304;28;20186;-69
2023/12/04 07:22:13;;;;;;;7.53;1.80;;;;;;;3.59;58.73;95621.88;5053208;28;20560;-69
2023/12/04 07:24:38;;;;;;;0.60;0.60;;;;;;;3.73;59.17;95616.94;5061048;28;20235;-68
2023/12/04 07:27:04;;;;;;;0.87;0.87;;;;;;;3.88;58.97;95617.25;5056984;28;20202;-68
2023/12/04 07:29:29;;;;;;;0.50;0.50;;;;;;;3.97;58.07;95616.34;5067079;28;20237;-67
2023/12/04 07:31:55;;;;;;;0.70;0.70;;;;;;;4.17;58.04;95611.75;5051046;28;20716;-68
2023/12/04 07:34:21;;;;;;;0.50;0.50;;;;;;;4.23;56.61;95621.56;5063167;28;20170;-68
2023/12/04 07:36:48;;;;;;;1.63;1.53;;;;;;;4.34;56.53;95620.47;5062317;28;20179;-67
2023/12/04 07:39:14;;;;;;;0.67;0.67;;;;;;;4.33;55.49;95622.28;5055961;28;20182;-68
2023/12/04 07:41:40;;;;;;;1.10;1.10;;;;;;;4.10;55.58;95610.72;5053339;28;20203;-68
2023/12/04 07:44:06;;;;;;;0.50;0.50;;;;;;;4.17;55.65;95617.78;5065591;28;20914;-68
2023/12/04 07:46:31;;;;;;;0.60;0.60;;;;;;;4.64;55.53;95614.00;5059797;28;20167;-68
2023/12/04 07:48:57;;;;;;;0.60;0.60;;;;;;;5.34;53.46;95611.97;5057862;28;20695;-69
2023/12/04 07:51:23;;;;;;;0.50;0.50;;;;;;;6.42;50.72;95607.25;5067143;28;20178;-69
2023/12/04 07:53:48;;;;;;;0.50;0.50;;;;;;;7.97;47.50;95616.00;5053894;28;20171;-68
2023/12/04 07:56:14;;;;;;;0.40;0.40;;;;;;;10.23;43.24;95613.50;5062180;28;20178;-68
2023/12/04 07:58:39;;;;;;;0.47;0.47;;;;;;;12.29;38.47;95601.88;5060706;28;20708;-68
2023/12/04 08:01:05;;;;;;;0.93;0.93;;;;;;;13.76;34.72;95617.19;5055882;28;20167;-70
2023/12/04 08:03:31;;;;;;;0.60;0.60;;;;;;;14.47;33.36;95622.28;5060842;28;20186;-70
2023/12/04 08:05:58;;;;;;;0.50;0.50;;;;;;;14.43;31.27;95608.69;5053829;28;20227;-69
2023/12/04 08:08:23;;;;;;;0.83;0.83;;;;;;;14.65;30.56;95627.63;5057081;28;20299;-69
2023/12/04 08:10:49;;;;;;;0.40;0.40;;;;;;;14.20;31.32;95618.97;5058780;28;20972;-69
2023/12/04 08:13:15;;;;;;;0.40;0.40;;;;;;;14.09;30.52;95624.97;5047965;28;20220;-69
2023/12/04 08:15:41;;;;;;;1.70;1.60;;;;;;;13.53;30.75;95625.66;5058107;28;20171;-69
2023/12/04 08:18:06;;;;;;;0.40;0.40;;;;;;;13.35;32.76;95628.16;5064531;28;20624;-68
2023/12/04 08:20:32;;;;;;;0.83;0.83;;;;;;;13.23;31.53;95616.63;5059358;28;20186;-68
2023/12/04 08:22:58;;;;;;;0.60;0.60;;;;;;;13.12;32.95;95616.22;5056904;28;20526;-69
2023/12/04 08:25:23;;;;;;;0.30;0.30;;;;;;;12.96;31.61;95597.34;5052127;28;20209;-69
2023/12/04 08:27:49;;;;;;;0.47;0.47;;;;;;;12.28;31.80;95620.56;5066414;28;20282;-70
2023/12/04 08:30:15;;;;;;;0.50;0.50;;;;;;;11.33;34.65;95622.31;5055823;28;20178;-69
2023/12/04 08:32:40;;;;;;;0.73;0.73;;;;;;;10.43;34.92;95608.41;5058980;28;20206;-69
2023/12/04 08:35:06;;;;;;;0.67;0.67;;;;;;;9.91;37.73;95592.94;5062557;28;20755;-68
2023/12/04 08:37:35;;;;;;;0.70;0.70;;;;;;;9.95;37.70;95621.31;5052974;28;20183;-68
2023/12/04 08:40:00;;;;;;;0.47;0.47;;;;;;;9.64;38.39;95620.78;5064380;28;20179;-68
2023/12/04 08:42:26;;;;;;;0.50;0.50;;;;;;;9.32;37.75;95624.69;5057612;28;20171;-69
2023/12/04 08:44:51;;;;;;;0.73;0.73;;;;;;;9.34;38.61;95626.09;5057454;28;20594;-69
2023/12/04 08:47:17;;;;;;;0.50;0.50;;;;;;;9.59;40.18;95615.28;5064240;28;20198;-68
2023/12/04 08:49:43;;;;;;;0.60;0.60;;;;;;;9.80;37.94;95618.75;5052984;28;20179;-68
2023/12/04 08:52:09;;;;;;;0.50;0.50;;;;;;;9.87;37.98;95615.34;5064006;28;20171;-68
2023/12/04 08:54:34;;;;;;;0.50;0.50;;;;;;;9.95;38.11;95616.03;5058613;28;20194;-68
2023/12/04 08:57:00;;;;;;;1.60;1.10;;;;;;;10.01;37.74;95609.25;5050121;28;20232;-67
2023/12/04 08:59:25;;;;;;;0.67;0.67;;;;;;;10.17;38.49;95606.34;5051999;28;20643;-69
2023/12/04 09:01:51;;;;;;;0.97;0.73;;;;;;;10.06;37.14;95618.19;5070056;28;20640;-69
2023/12/04 09:04:16;;;;;;;0.60;0.60;;;;;;;9.90;37.23;95610.53;5058780;28;20179;-70
2023/12/04 09:06:42;;;;;;;0.40;0.40;;;;;;;9.62;38.88;95605.19;5049833;28;20189;-68
2023/12/04 09:09:07;;;;;;;2.67;1.27;;;;;;;9.46;40.11;95577.34;5047916;28;20684;-69
2023/12/04 09:11:33;;;;;;;0.60;0.60;;;;;;;9.76;39.02;95593.03;5049950;28;20653;-68
2023/12/04 09:13:58;;;;;;;0.80;0.80;;;;;;;9.68;39.06;95588.69;5048855;28;20193;-68
2023/12/04 09:16:24;;;;;;;0.50;0.50;;;;;;;9.48;37.36;95587.66;5050020;28;20159;-68
2023/12/04 09:18:49;;;;;;;0.97;0.97;;;;;;;9.33;38.18;95587.72;5048889;28;20628;-68
2023/12/04 09:21:15;;;;;;;0.50;0.50;;;;;;;9.32;39.07;95588.72;5063148;28;20261;-68
2023/12/04 09:23:42;;;;;;;0.40;0.40;;;;;;;9.40;39.21;95585.97;5068334;28;20533;-67
2023/12/04 09:26:08;;;;;;;0.50;0.50;;;;;;;9.29;39.23;95586.44;5067610;28;20174;-67
2023/12/04 09:28:35;;;;;;;0.60;0.60;;;;;;;9.14;38.01;95582.22;5066892;28;20684;-67
2023/12/04 09:31:00;;;;;;;2.97;2.40;;;;;;;8.98;38.99;95584.06;5054203;28;20657;-67
2023/12/04 09:33:26;;;;;;;0.80;0.80;;;;;;;8.90;39.11;95580.72;5048600;28;20178;-67
2023/12/04 09:35:52;;;;;;;0.50;0.50;;;;;;;8.94;40.13;95581.97;5049348;28;20552;-68
2023/12/04 09:38:18;;;;;;;0.80;0.80;;;;;;;9.12;39.49;95579.78;5049645;28;20198;-68
2023/12/04 09:40:43;;;;;;;0.50;0.50;;;;;;;9.05;38.56;95587.56;5048548;28;20198;-67
2023/12/04 09:43:09;;;;;;;2.43;0.83;;;;;;;8.83;39.15;95580.59;5048190;28;20164;-67
2023/12/04 09:45:36;;;;;;;0.60;0.60;;;;;;;8.65;39.36;95559.97;5048203;28;20197;-67
2023/12/04 09:48:02;;;;;;;0.73;0.73;;;;;;;8.63;39.48;95571.66;5048570;28;20199;-67
2023/12/04 09:50:27;;;;;;;1.13;0.97;;;;;;;8.44;39.60;95567.75;5049399;28;20252;-68
2023/12/04 09:52:53;;;;;;;0.60;0.60;;;;;;;8.18;41.40;95567.34;5049009;28;20655;-68
2023/12/04 09:55:18;;;;;;;0.60;0.60;;;;;;;8.19;41.49;95542.75;5049301;28;20277;-68
2023/12/04 09:57:45;;;;;;;0.40;0.40;;;;;;;8.26;40.19;95567.25;5049235;28;20171;-67
2023/12/04 10:00:13;;;;;;;1.10;1.10;;;;;;;8.32;40.68;95566.56;5049105;28;20190;-68
2023/12/04 10:02:40;;;;;;;0.50;0.50;;;;;;;8.15;40.20;95562.44;5049178;28;20189;-68
2023/12/04 10:05:07;;;;;;;0.70;0.70;;;;;;;7.97;40.23;95558.34;5048440;28;20237;-68
2023/12/04 10:07:33;;;;;;;0.67;0.67;;;;;;;7.90;40.79;95538.25;5049186;28;20209;-67
2023/12/04 10:09:59;;;;;;;0.77;0.77;;;;;;;7.86;40.88;95545.66;5049004;28;20170;-68
2023/12/04 10:12:26;;;;;;;0.50;0.50;;;;;;;7.94;42.15;95555.25;5047953;28;20167;-68
2023/12/04 10:15:08;;;;;;;0.50;0.50;;;;;;;7.84;41.08;95558.13;5049259;28;20178;-68
2023/12/04 10:17:37;;;;;;;0.40;0.40;;;;;;;7.76;41.52;95558.19;5048732;28;20175;-68
2023/12/04 10:20:12;;;;;;;3.00;1.53;;;;;;;7.77;42.01;95557.22;5065060;28;20158;-69
2023/12/04 10:22:39;;;;;;;0.73;0.73;;;;;;;7.64;41.74;95550.91;5069003;28;20166;-68
2023/12/04 10:25:16;;;;;;;0.50;0.50;;;;;;;7.62;42.47;95545.84;5068533;28;20261;-68
2023/12/04 10:27:41;;;;;;;0.50;0.50;;;;;;;7.55;41.54;95547.53;5068811;28;20262;-68
2023/12/04 10:30:08;;;;;;;0.40;0.40;;;;;;;7.12;40.91;95536.69;5068744;28;20284;-68
2023/12/04 10:32:39;;;;;;;0.40;0.40;;;;;;;7.16;41.17;95545.84;5068914;28;20171;-67
2023/12/04 10:35:09;;;;;;;0.50;0.50;;;;;;;7.16;41.79;95534.53;5068656;28;20174;-68
2023/12/04 10:37:37;;;;;;;0.70;0.70;;;;;;;7.20;42.20;95535.81;5068868;28;20515;-67
2023/12/04 10:40:03;;;;;;;0.40;0.40;;;;;;;7.24;42.78;95531.06;5068556;28;20192;-68
2023/12/04 10:42:30;;;;;;;0.50;0.50;;;;;;;7.12;43.97;95526.22;5068525;28;20190;-67
2023/12/04 10:44:59;;;;;;;0.40;0.40;;;;;;;7.23;42.91;95518.94;5068794;28;20181;-67
2023/12/04 10:47:25;;;;;;;0.70;0.70;;;;;;;7.25;43.30;95522.22;5068363;28;20220;-67
2023/12/04 10:49:51;;;;;;;0.50;0.50;;;;;;;7.10;40.72;95520.31;5068711;28;20159;-67
2023/12/04 10:52:19;;;;;;;0.40;0.40;;;;;;;6.88;42.50;95531.59;5069362;28;20185;-68
2023/12/04 10:54:47;;;;;;;0.70;0.70;;;;;;;6.74;43.34;95521.84;5072955;28;20166;-68
2023/12/04 10:57:16;;;;;;;0.70;0.70;;;;;;;6.65;45.29;95526.31;5072789;28;20177;-68
2023/12/04 10:59:43;;;;;;;0.50;0.50;;;;;;;6.70;43.83;95534.44;5066118;28;20185;-68
2023/12/04 11:02:17;;;;;;;0.90;0.90;;;;;;;6.55;45.11;95527.47;5072225;28;20536;-68
2023/12/04 11:04:43;;;;;;;0.60;0.60;;;;;;;6.31;44.87;95529.16;5058453;28;20821;-68
2023/12/04 11:07:09;;;;;;;1.00;1.00;;;;;;;6.13;47.38;95505.06;5053145;28;20230;-68
2023/12/04 11:09:36;;;;;;;0.53;0.53;;;;;;;6.29;47.70;95515.47;5051909;28;20179;-68
2023/12/04 11:12:09;;;;;;;0.60;0.60;;;;;;;6.40;47.31;95511.66;5052404;28;20168;-68
2023/12/04 11:14:46;;;;;;;0.47;0.47;;;;;;;6.48;46.81;95514.28;5051537;28;20229;-68
2023/12/04 11:17:14;;;;;;;1.77;1.67;;;;;;;6.33;46.42;95506.28;5050996;28;20594;-68
2023/12/04 11:20:03;;;;;;;0.90;0.90;;;;;;;5.59;45.91;95480.47;5051926;28;20229;-68
2023/12/04 11:22:29;;;;;;;1.20;1.10;;;;;;;5.37;48.42;95499.38;5052167;28;20182;-68
2023/12/04 11:24:56;;;;;;;0.50;0.50;;;;;;;5.62;49.09;95499.22;5052620;28;20171;-68
2023/12/04 11:27:22;;;;;;;0.60;0.60;;;;;;;5.49;48.81;95466.75;5052529;28;20195;-68
2023/12/04 11:29:49;;;;;;;0.80;0.80;;;;;;;5.79;48.97;95494.81;5052488;28;20187;-68
2023/12/04 11:32:20;;;;;;;0.50;0.50;;;;;;;5.81;48.65;95492.81;5052311;28;21043;-67
2023/12/04 11:34:55;;;;;;;0.50;0.50;;;;;;;5.94;49.17;95481.91;5052112;28;20194;-67
2023/12/04 11:37:21;;;;;;;0.50;0.50;;;;;;;6.04;49.17;95479.94;5052123;28;20167;-67